OOCL Utah — VRNR5 — position and weather

sailwx.info

Track history (hours):
 
Tides and Currents Weather Stations Pressure Air Temp Water Temp Dewpoint Dewpoint Depression Visibility Wind Speed Wind Dir Waves Ship Positions

OOCL Utah

Last reported at 2018-Feb-19 02:38 UTC. Time now 2018-Feb-22 18:45 UTC.
Position N 40°23' W 073°45'.

Length 335 m; draft 13.1 m.

Type: Cargo ship. MMSI: 477067900.

Date/timePositionNaut miles runAvg speedWind from/ knotsBaromVisibWave heightAir tempDewpointWater temp
2018-Feb-19 02:38N 40°23' W 073°45'1 9.6
2018-Feb-19 02:29N 40°24' W 073°46'5 9.1
2018-Feb-19 01:59N 40°27' W 073°51'5 9.6
2018-Feb-19 01:29N 40°30' W 073°56'612.3
2018-Feb-19 01:00N 40°34' W 074°02'5 9.7
2018-Feb-19 00:30N 40°39' W 074°03'3 5.3
2018-Feb-19 00:00N 40°39' W 074°07'2 3.2
2018-Feb-18 23:30N 40°39' W 074°09'2 3.1
2018-Feb-18 23:00N 40°40' W 074°08'0 0.1
2018-Feb-18 22:28N 40°40' W 074°08'0 0.0
2018-Feb-18 21:55N 40°40' W 074°08'0 0.0
2018-Feb-18 21:25N 40°40' W 074°08'0 0.0
2018-Feb-18 20:58N 40°40' W 074°08'0 0.0
2018-Feb-18 20:28N 40°40' W 074°08'0 0.0
2018-Feb-18 19:58N 40°40' W 074°08'0 0.0
2018-Feb-18 19:28N 40°40' W 074°08'0 0.0
2018-Feb-18 18:58N 40°40' W 074°08'0 0.0
2018-Feb-18 18:28N 40°40' W 074°08'0 0.0
2018-Feb-18 17:58N 40°40' W 074°08'0 0.0
2018-Feb-18 17:28N 40°40' W 074°08'0 0.0
2018-Feb-18 16:58N 40°40' W 074°08'0 0.0
2018-Feb-18 16:28N 40°40' W 074°08'0 0.0
2018-Feb-18 15:58N 40°40' W 074°08'0 0.0
2018-Feb-18 15:28N 40°40' W 074°08'0 0.0
2018-Feb-18 14:58N 40°40' W 074°08'0 0.0
2018-Feb-18 14:28N 40°40' W 074°08'0 0.0
2018-Feb-18 13:58N 40°40' W 074°08'0 0.0
2018-Feb-18 13:28N 40°40' W 074°08'0 0.0
2018-Feb-18 12:58N 40°40' W 074°08'0 0.0
2018-Feb-18 12:28N 40°40' W 074°08'0 0.0
2018-Feb-18 11:55N 40°40' W 074°08'0 0.0
2018-Feb-18 11:28N 40°40' W 074°08'0 0.0
2018-Feb-18 10:58N 40°40' W 074°08'0 0.0
2018-Feb-18 10:28N 40°40' W 074°08'0 0.0
2018-Feb-18 09:58N 40°40' W 074°08'0 0.0
2018-Feb-18 09:28N 40°40' W 074°08'0 0.0
2018-Feb-18 08:58N 40°40' W 074°08'0 0.0
2018-Feb-18 08:28N 40°40' W 074°08'0 0.0
2018-Feb-18 07:58N 40°40' W 074°08'0 0.0
2018-Feb-18 07:28N 40°40' W 074°08'0 0.0
2018-Feb-18 06:58N 40°40' W 074°08'0 0.0
2018-Feb-18 06:28N 40°40' W 074°08'0 0.0
2018-Feb-18 05:58N 40°40' W 074°08'0 0.0
2018-Feb-18 05:25N 40°40' W 074°08'0 0.0
2018-Feb-18 04:52N 40°40' W 074°08'0 0.0
2018-Feb-18 04:28N 40°40' W 074°08'0 0.0
2018-Feb-18 03:52N 40°40' W 074°08'0 0.0
2018-Feb-18 03:28N 40°40' W 074°08'0 0.0
2018-Feb-18 02:58N 40°40' W 074°08'0 0.0
2018-Feb-18 02:28N 40°40' W 074°08'0 0.1
2018-Feb-18 02:00N 40°40' W 074°08'1 1.1
2018-Feb-18 01:30N 40°41' W 074°09'0 0.1
2018-Feb-18 00:58N 40°41' W 074°09'0 0.0
2018-Feb-18 00:28N 40°41' W 074°09'0 0.0
2018-Feb-17 23:58N 40°41' W 074°09'0 0.0
2018-Feb-17 23:28N 40°41' W 074°09'0 0.0
2018-Feb-17 22:58N 40°41' W 074°09'0 0.0
2018-Feb-17 22:28N 40°41' W 074°09'0 0.0
2018-Feb-17 21:58N 40°41' W 074°09'0 0.0
2018-Feb-17 21:28N 40°41' W 074°09'0 0.0
2018-Feb-17 20:58N 40°41' W 074°09'0 0.0
2018-Feb-17 20:28N 40°41' W 074°09'0 0.0
2018-Feb-17 19:58N 40°41' W 074°09'0 0.0
2018-Feb-17 19:28N 40°41' W 074°09'0 0.0
2018-Feb-17 18:58N 40°41' W 074°09'0 0.0
2018-Feb-17 18:28N 40°41' W 074°09'0 0.0
2018-Feb-17 17:58N 40°41' W 074°09'0 0.0
2018-Feb-17 17:28N 40°41' W 074°09'0 0.0
2018-Feb-17 16:58N 40°41' W 074°09'0 0.0
2018-Feb-17 16:28N 40°41' W 074°09'0 0.0
2018-Feb-17 15:58N 40°41' W 074°09'0 0.0
2018-Feb-17 15:28N 40°41' W 074°09'0 0.0
2018-Feb-17 14:58N 40°41' W 074°09'0 0.0
2018-Feb-17 14:28N 40°41' W 074°09'0 0.0
2018-Feb-17 13:58N 40°41' W 074°09'0 0.0
2018-Feb-17 13:25N 40°41' W 074°09'0 0.0
2018-Feb-17 12:58N 40°41' W 074°09'0 0.0
2018-Feb-17 12:28N 40°41' W 074°09'0 0.0
2018-Feb-17 11:58N 40°41' W 074°09'0 0.0
2018-Feb-17 11:28N 40°41' W 074°09'0 0.0
2018-Feb-17 10:58N 40°41' W 074°09'0 0.0
2018-Feb-17 10:28N 40°41' W 074°09'0 0.0
2018-Feb-17 09:58N 40°41' W 074°09'0 0.0
2018-Feb-17 09:28N 40°41' W 074°09'0 0.0
2018-Feb-17 08:58N 40°41' W 074°09'0 0.0
2018-Feb-17 08:28N 40°41' W 074°09'0 0.0
2018-Feb-17 07:58N 40°41' W 074°09'0 0.0
2018-Feb-17 07:28N 40°41' W 074°09'0 0.0
2018-Feb-17 06:58N 40°41' W 074°09'0 0.0
2018-Feb-17 06:28N 40°41' W 074°09'0 0.0
2018-Feb-17 05:58N 40°41' W 074°09'0 0.0
2018-Feb-17 05:28N 40°41' W 074°09'0 0.0
2018-Feb-17 04:58N 40°41' W 074°09'0 0.0
2018-Feb-17 04:28N 40°41' W 074°09'0 0.0
2018-Feb-17 03:55N 40°41' W 074°09'0 0.1
2018-Feb-17 03:28N 40°41' W 074°09'0 0.0
2018-Feb-17 02:58N 40°41' W 074°09'0 0.0
2018-Feb-17 02:28N 40°41' W 074°09'0 0.0
2018-Feb-17 01:55N 40°41' W 074°09'0 0.0
2018-Feb-17 01:28N 40°41' W 074°09'0 0.0
2018-Feb-17 00:58N 40°41' W 074°09'0 0.0
2018-Feb-17 00:28N 40°41' W 074°09'0 0.0
2018-Feb-16 23:58N 40°41' W 074°09'0 0.0
2018-Feb-16 23:28N 40°41' W 074°09'0 0.0
2018-Feb-16 23:00N 40°41' W 074°09'1 1.1
2018-Feb-16 22:30N 40°40' W 074°08'2 3.5
2018-Feb-16 22:01N 40°39' W 074°08'3 6.2
2018-Feb-16 21:31N 40°39' W 074°04'4 7.9
2018-Feb-16 21:00N 40°35' W 074°02'613.0
2018-Feb-16 20:31N 40°30' W 073°57'5 9.8
2018-Feb-16 20:00N 40°28' W 073°51'4 7.1
2018-Feb-16 19:30N 40°26' W 073°47'4 7.8
2018-Feb-16 18:58N 40°22' W 073°47'4 9.0
2018-Feb-16 18:30N 40°18' W 073°46'40013.8
2018-Feb-15 13:35N 34°02' W 076°37'220.7
2018-Feb-15 13:30N 34°01' W 076°38'1220.5
2018-Feb-15 12:55N 33°53' W 076°49'16915.9
2018-Feb-15 02:21N 32°48' W 079°55'3 4.7
2018-Feb-15 01:48N 32°50' W 079°54'0 0.0
2018-Feb-15 01:27N 32°50' W 079°54'0 0.0
2018-Feb-14 22:42N 32°50' W 079°54'  
2018-Feb-12 14:56N 32°01' W 080°27'4 9.8
2018-Feb-12 14:30N 32°00' W 080°32'5 9.9
2018-Feb-12 14:00N 31°58' W 080°37'5 9.7
2018-Feb-12 13:29N 31°58' W 080°43'511.4
2018-Feb-12 13:00N 32°01' W 080°49'510.8
2018-Feb-12 12:30N 32°02' W 080°55'5 9.7
2018-Feb-12 12:00N 32°05' W 080°59'3 6.8
2018-Feb-12 11:30N 32°05' W 081°03'3 6.1
2018-Feb-12 11:00N 32°06' W 081°07'2 4.1
2018-Feb-12 10:30N 32°08' W 081°08'1 1.1
2018-Feb-12 09:58N 32°08' W 081°09'0 0.0
2018-Feb-12 08:28N 32°08' W 081°09'0 0.0
2018-Feb-12 07:58N 32°08' W 081°09'0 0.0
2018-Feb-12 07:28N 32°08' W 081°09'0 0.0
2018-Feb-12 06:52N 32°08' W 081°09'0 0.0
2018-Feb-12 06:28N 32°08' W 081°09'0 0.0
2018-Feb-12 05:58N 32°08' W 081°09'0 0.0
2018-Feb-12 05:28N 32°08' W 081°09'0 0.0
2018-Feb-12 04:34N 32°08' W 081°09'0 0.0
2018-Feb-12 04:28N 32°08' W 081°09'0 0.0
2018-Feb-12 03:58N 32°08' W 081°09'0 0.0
2018-Feb-12 03:28N 32°08' W 081°09'0 0.0
2018-Feb-12 02:58N 32°08' W 081°09'0 0.0
2018-Feb-12 02:28N 32°08' W 081°09'0 0.0
2018-Feb-12 01:58N 32°08' W 081°09'0 0.0
2018-Feb-12 01:28N 32°08' W 081°09'0 0.0
2018-Feb-12 00:58N 32°08' W 081°09'0 0.0
2018-Feb-12 00:28N 32°08' W 081°09'0 0.0
2018-Feb-11 23:52N 32°08' W 081°09'0 0.0
2018-Feb-11 23:22N 32°08' W 081°09'0 0.0
2018-Feb-11 22:58N 32°08' W 081°09'0 0.0
2018-Feb-11 22:16N 32°08' W 081°09'0 0.0
2018-Feb-11 21:52N 32°08' W 081°09'0 0.0
2018-Feb-11 21:28N 32°08' W 081°09'0 0.0
2018-Feb-11 20:52N 32°08' W 081°09'0 0.0
2018-Feb-11 20:28N 32°08' W 081°09'0 0.0
2018-Feb-11 19:58N 32°08' W 081°09'0 0.0
2018-Feb-11 19:28N 32°08' W 081°09'0 0.0
2018-Feb-11 18:58N 32°08' W 081°09'0 0.0
2018-Feb-11 18:28N 32°08' W 081°09'0 0.0
2018-Feb-11 17:58N 32°08' W 081°09'0 0.0
2018-Feb-11 17:28N 32°08' W 081°09'0 0.0
2018-Feb-11 16:58N 32°08' W 081°09'0 0.0
2018-Feb-11 16:28N 32°08' W 081°09'0 0.0
2018-Feb-11 15:58N 32°08' W 081°09'0 0.0
2018-Feb-11 15:28N 32°08' W 081°09'0 0.0
2018-Feb-11 14:58N 32°08' W 081°09'0 0.0
2018-Feb-11 14:28N 32°08' W 081°09'0 0.0
2018-Feb-11 13:52N 32°08' W 081°09'0 0.0
2018-Feb-11 13:16N 32°08' W 081°09'0 0.0
2018-Feb-11 12:52N 32°08' W 081°09'0 0.0
2018-Feb-11 12:28N 32°08' W 081°09'0 0.0
2018-Feb-11 11:52N 32°08' W 081°09'0 0.0
2018-Feb-11 11:28N 32°08' W 081°09'0 0.0
2018-Feb-11 10:58N 32°08' W 081°09'0 0.0
2018-Feb-11 10:28N 32°08' W 081°09'0 0.0
2018-Feb-11 09:58N 32°08' W 081°09'0 0.0
2018-Feb-11 09:28N 32°08' W 081°09'0 0.0
2018-Feb-11 08:52N 32°08' W 081°09'0 0.0
2018-Feb-11 08:28N 32°08' W 081°09'0 0.0
2018-Feb-11 07:58N 32°08' W 081°09'0 0.0
2018-Feb-11 07:28N 32°08' W 081°09'0 0.0
2018-Feb-11 06:46N 32°08' W 081°09'0 0.0
2018-Feb-11 06:22N 32°08' W 081°09'0 0.0
2018-Feb-11 05:58N 32°08' W 081°09'0 0.0
2018-Feb-11 05:28N 32°08' W 081°09'0 0.0
2018-Feb-11 04:58N 32°08' W 081°09'0 0.0
2018-Feb-11 04:28N 32°08' W 081°09'0 0.0
2018-Feb-11 03:58N 32°08' W 081°09'0 0.0
2018-Feb-11 03:10N 32°08' W 081°09'0 0.0
2018-Feb-11 02:58N 32°08' W 081°09'0 0.0
2018-Feb-11 02:28N 32°08' W 081°09'0 0.0
2018-Feb-11 01:58N 32°08' W 081°09'0 0.0
2018-Feb-11 01:28N 32°08' W 081°09'0 0.0
2018-Feb-11 00:46N 32°08' W 081°09'0 0.1
2018-Feb-11 00:30N 32°08' W 081°09'0 0.8
2018-Feb-11 00:00N 32°08' W 081°08'2 4.2
2018-Feb-10 23:30N 32°06' W 081°07'3 5.4
2018-Feb-10 23:00N 32°05' W 081°04'4 7.2
2018-Feb-10 22:31N 32°06' W 081°00'5 9.8
2018-Feb-10 22:00N 32°03' W 080°56'5 9.8
2018-Feb-10 21:30N 32°02' W 080°50'612.8
2018-Feb-10 21:00N 31°58' W 080°44'4 7.5
2018-Feb-10 20:30N 31°57' W 080°40'3 6.1
2018-Feb-10 20:00N 31°55' W 080°37'1 1.0
2018-Feb-10 19:30N 31°55' W 080°37'1 3.0
2018-Feb-10 19:00N 31°54' W 080°35'4 7.4
2018-Feb-10 18:30N 31°52' W 080°32'510.8
2018-Feb-10 18:00N 31°49' W 080°26'713.5
2018-Feb-10 17:31N 31°45' W 080°20'36512.4
2018-Feb-09 12:00N 27°12' W 075°42'   070 / 101029.210.8 22.519.623.0
Track history (hours):
 
Tides and Currents Weather Stations Pressure Air Temp Water Temp Dewpoint Dewpoint Depression Visibility Wind Speed Wind Dir Waves Ship Positions

OOCL Utah

Last reported at 2018-Feb-19 02:38 UTC. Time now 2018-Feb-22 18:45 UTC.
Position N 40°23' W 073°45'.

Length 335 m; draft 13.1 m.

Type: Cargo ship. MMSI: 477067900.

Date/timePositionNaut miles runAvg speedWind from/ knotsBaromVisibWave heightAir tempDewpointWater temp
2018-Feb-19 02:38N 40°23' W 073°45'1 9.6
2018-Feb-19 02:29N 40°24' W 073°46'5 9.1
2018-Feb-19 01:59N 40°27' W 073°51'5 9.6
2018-Feb-19 01:29N 40°30' W 073°56'612.3
2018-Feb-19 01:00N 40°34' W 074°02'5 9.7
2018-Feb-19 00:30N 40°39' W 074°03'3 5.3
2018-Feb-19 00:00N 40°39' W 074°07'2 3.2
2018-Feb-18 23:30N 40°39' W 074°09'2 3.1
2018-Feb-18 23:00N 40°40' W 074°08'0 0.1
2018-Feb-18 22:28N 40°40' W 074°08'0 0.0
2018-Feb-18 21:55N 40°40' W 074°08'0 0.0
2018-Feb-18 21:25N 40°40' W 074°08'0 0.0
2018-Feb-18 20:58N 40°40' W 074°08'0 0.0
2018-Feb-18 20:28N 40°40' W 074°08'0 0.0
2018-Feb-18 19:58N 40°40' W 074°08'0 0.0
2018-Feb-18 19:28N 40°40' W 074°08'0 0.0
2018-Feb-18 18:58N 40°40' W 074°08'0 0.0
2018-Feb-18 18:28N 40°40' W 074°08'0 0.0
2018-Feb-18 17:58N 40°40' W 074°08'0 0.0
2018-Feb-18 17:28N 40°40' W 074°08'0 0.0
2018-Feb-18 16:58N 40°40' W 074°08'0 0.0
2018-Feb-18 16:28N 40°40' W 074°08'0 0.0
2018-Feb-18 15:58N 40°40' W 074°08'0 0.0
2018-Feb-18 15:28N 40°40' W 074°08'0 0.0
2018-Feb-18 14:58N 40°40' W 074°08'0 0.0
2018-Feb-18 14:28N 40°40' W 074°08'0 0.0
2018-Feb-18 13:58N 40°40' W 074°08'0 0.0
2018-Feb-18 13:28N 40°40' W 074°08'0 0.0
2018-Feb-18 12:58N 40°40' W 074°08'0 0.0
2018-Feb-18 12:28N 40°40' W 074°08'0 0.0
2018-Feb-18 11:55N 40°40' W 074°08'0 0.0
2018-Feb-18 11:28N 40°40' W 074°08'0 0.0
2018-Feb-18 10:58N 40°40' W 074°08'0 0.0
2018-Feb-18 10:28N 40°40' W 074°08'0 0.0
2018-Feb-18 09:58N 40°40' W 074°08'0 0.0
2018-Feb-18 09:28N 40°40' W 074°08'0 0.0
2018-Feb-18 08:58N 40°40' W 074°08'0 0.0
2018-Feb-18 08:28N 40°40' W 074°08'0 0.0
2018-Feb-18 07:58N 40°40' W 074°08'0 0.0
2018-Feb-18 07:28N 40°40' W 074°08'0 0.0
2018-Feb-18 06:58N 40°40' W 074°08'0 0.0
2018-Feb-18 06:28N 40°40' W 074°08'0 0.0
2018-Feb-18 05:58N 40°40' W 074°08'0 0.0
2018-Feb-18 05:25N 40°40' W 074°08'0 0.0
2018-Feb-18 04:52N 40°40' W 074°08'0 0.0
2018-Feb-18 04:28N 40°40' W 074°08'0 0.0
2018-Feb-18 03:52N 40°40' W 074°08'0 0.0
2018-Feb-18 03:28N 40°40' W 074°08'0 0.0
2018-Feb-18 02:58N 40°40' W 074°08'0 0.0
2018-Feb-18 02:28N 40°40' W 074°08'0 0.1
2018-Feb-18 02:00N 40°40' W 074°08'1 1.1
2018-Feb-18 01:30N 40°41' W 074°09'0 0.1
2018-Feb-18 00:58N 40°41' W 074°09'0 0.0
2018-Feb-18 00:28N 40°41' W 074°09'0 0.0
2018-Feb-17 23:58N 40°41' W 074°09'0 0.0
2018-Feb-17 23:28N 40°41' W 074°09'0 0.0
2018-Feb-17 22:58N 40°41' W 074°09'0 0.0
2018-Feb-17 22:28N 40°41' W 074°09'0 0.0
2018-Feb-17 21:58N 40°41' W 074°09'0 0.0
2018-Feb-17 21:28N 40°41' W 074°09'0 0.0
2018-Feb-17 20:58N 40°41' W 074°09'0 0.0
2018-Feb-17 20:28N 40°41' W 074°09'0 0.0
2018-Feb-17 19:58N 40°41' W 074°09'0 0.0
2018-Feb-17 19:28N 40°41' W 074°09'0 0.0
2018-Feb-17 18:58N 40°41' W 074°09'0 0.0
2018-Feb-17 18:28N 40°41' W 074°09'0 0.0
2018-Feb-17 17:58N 40°41' W 074°09'0 0.0
2018-Feb-17 17:28N 40°41' W 074°09'0 0.0
2018-Feb-17 16:58N 40°41' W 074°09'0 0.0
2018-Feb-17 16:28N 40°41' W 074°09'0 0.0
2018-Feb-17 15:58N 40°41' W 074°09'0 0.0
2018-Feb-17 15:28N 40°41' W 074°09'0 0.0
2018-Feb-17 14:58N 40°41' W 074°09'0 0.0
2018-Feb-17 14:28N 40°41' W 074°09'0 0.0
2018-Feb-17 13:58N 40°41' W 074°09'0 0.0
2018-Feb-17 13:25N 40°41' W 074°09'0 0.0
2018-Feb-17 12:58N 40°41' W 074°09'0 0.0
2018-Feb-17 12:28N 40°41' W 074°09'0 0.0
2018-Feb-17 11:58N 40°41' W 074°09'0 0.0
2018-Feb-17 11:28N 40°41' W 074°09'0 0.0
2018-Feb-17 10:58N 40°41' W 074°09'0 0.0
2018-Feb-17 10:28N 40°41' W 074°09'0 0.0
2018-Feb-17 09:58N 40°41' W 074°09'0 0.0
2018-Feb-17 09:28N 40°41' W 074°09'0 0.0
2018-Feb-17 08:58N 40°41' W 074°09'0 0.0
2018-Feb-17 08:28N 40°41' W 074°09'0 0.0
2018-Feb-17 07:58N 40°41' W 074°09'0 0.0
2018-Feb-17 07:28N 40°41' W 074°09'0 0.0
2018-Feb-17 06:58N 40°41' W 074°09'0 0.0
2018-Feb-17 06:28N 40°41' W 074°09'0 0.0
2018-Feb-17 05:58N 40°41' W 074°09'0 0.0
2018-Feb-17 05:28N 40°41' W 074°09'0 0.0
2018-Feb-17 04:58N 40°41' W 074°09'0 0.0
2018-Feb-17 04:28N 40°41' W 074°09'0 0.0
2018-Feb-17 03:55N 40°41' W 074°09'0 0.1
2018-Feb-17 03:28N 40°41' W 074°09'0 0.0
2018-Feb-17 02:58N 40°41' W 074°09'0 0.0
2018-Feb-17 02:28N 40°41' W 074°09'0 0.0
2018-Feb-17 01:55N 40°41' W 074°09'0 0.0
2018-Feb-17 01:28N 40°41' W 074°09'0 0.0
2018-Feb-17 00:58N 40°41' W 074°09'0 0.0
2018-Feb-17 00:28N 40°41' W 074°09'0 0.0
2018-Feb-16 23:58N 40°41' W 074°09'0 0.0
2018-Feb-16 23:28N 40°41' W 074°09'0 0.0
2018-Feb-16 23:00N 40°41' W 074°09'1 1.1
2018-Feb-16 22:30N 40°40' W 074°08'2 3.5
2018-Feb-16 22:01N 40°39' W 074°08'3 6.2
2018-Feb-16 21:31N 40°39' W 074°04'4 7.9
2018-Feb-16 21:00N 40°35' W 074°02'613.0
2018-Feb-16 20:31N 40°30' W 073°57'5 9.8
2018-Feb-16 20:00N 40°28' W 073°51'4 7.1
2018-Feb-16 19:30N 40°26' W 073°47'4 7.8
2018-Feb-16 18:58N 40°22' W 073°47'4 9.0
2018-Feb-16 18:30N 40°18' W 073°46'40013.8
2018-Feb-15 13:35N 34°02' W 076°37'220.7
2018-Feb-15 13:30N 34°01' W 076°38'1220.5
2018-Feb-15 12:55N 33°53' W 076°49'16915.9
2018-Feb-15 02:21N 32°48' W 079°55'3 4.7
2018-Feb-15 01:48N 32°50' W 079°54'0 0.0
2018-Feb-15 01:27N 32°50' W 079°54'0 0.0
2018-Feb-14 22:42N 32°50' W 079°54'  
2018-Feb-12 14:56N 32°01' W 080°27'4 9.8
2018-Feb-12 14:30N 32°00' W 080°32'5 9.9
2018-Feb-12 14:00N 31°58' W 080°37'5 9.7
2018-Feb-12 13:29N 31°58' W 080°43'511.4
2018-Feb-12 13:00N 32°01' W 080°49'510.8
2018-Feb-12 12:30N 32°02' W 080°55'5 9.7
2018-Feb-12 12:00N 32°05' W 080°59'3 6.8
2018-Feb-12 11:30N 32°05' W 081°03'3 6.1
2018-Feb-12 11:00N 32°06' W 081°07'2 4.1
2018-Feb-12 10:30N 32°08' W 081°08'1 1.1
2018-Feb-12 09:58N 32°08' W 081°09'0 0.0
2018-Feb-12 08:28N 32°08' W 081°09'0 0.0
2018-Feb-12 07:58N 32°08' W 081°09'0 0.0
2018-Feb-12 07:28N 32°08' W 081°09'0 0.0
2018-Feb-12 06:52N 32°08' W 081°09'0 0.0
2018-Feb-12 06:28N 32°08' W 081°09'0 0.0
2018-Feb-12 05:58N 32°08' W 081°09'0 0.0
2018-Feb-12 05:28N 32°08' W 081°09'0 0.0
2018-Feb-12 04:34N 32°08' W 081°09'0 0.0
2018-Feb-12 04:28N 32°08' W 081°09'0 0.0
2018-Feb-12 03:58N 32°08' W 081°09'0 0.0
2018-Feb-12 03:28N 32°08' W 081°09'0 0.0
2018-Feb-12 02:58N 32°08' W 081°09'0 0.0
2018-Feb-12 02:28N 32°08' W 081°09'0 0.0
2018-Feb-12 01:58N 32°08' W 081°09'0 0.0
2018-Feb-12 01:28N 32°08' W 081°09'0 0.0
2018-Feb-12 00:58N 32°08' W 081°09'0 0.0
2018-Feb-12 00:28N 32°08' W 081°09'0 0.0
2018-Feb-11 23:52N 32°08' W 081°09'0 0.0
2018-Feb-11 23:22N 32°08' W 081°09'0 0.0
2018-Feb-11 22:58N 32°08' W 081°09'0 0.0
2018-Feb-11 22:16N 32°08' W 081°09'0 0.0
2018-Feb-11 21:52N 32°08' W 081°09'0 0.0
2018-Feb-11 21:28N 32°08' W 081°09'0 0.0
2018-Feb-11 20:52N 32°08' W 081°09'0 0.0
2018-Feb-11 20:28N 32°08' W 081°09'0 0.0
2018-Feb-11 19:58N 32°08' W 081°09'0 0.0
2018-Feb-11 19:28N 32°08' W 081°09'0 0.0
2018-Feb-11 18:58N 32°08' W 081°09'0 0.0
2018-Feb-11 18:28N 32°08' W 081°09'0 0.0
2018-Feb-11 17:58N 32°08' W 081°09'0 0.0
2018-Feb-11 17:28N 32°08' W 081°09'0 0.0
2018-Feb-11 16:58N 32°08' W 081°09'0 0.0
2018-Feb-11 16:28N 32°08' W 081°09'0 0.0
2018-Feb-11 15:58N 32°08' W 081°09'0 0.0
2018-Feb-11 15:28N 32°08' W 081°09'0 0.0
2018-Feb-11 14:58N 32°08' W 081°09'0 0.0
2018-Feb-11 14:28N 32°08' W 081°09'0 0.0
2018-Feb-11 13:52N 32°08' W 081°09'0 0.0
2018-Feb-11 13:16N 32°08' W 081°09'0 0.0
2018-Feb-11 12:52N 32°08' W 081°09'0 0.0
2018-Feb-11 12:28N 32°08' W 081°09'0 0.0
2018-Feb-11 11:52N 32°08' W 081°09'0 0.0
2018-Feb-11 11:28N 32°08' W 081°09'0 0.0
2018-Feb-11 10:58N 32°08' W 081°09'0 0.0
2018-Feb-11 10:28N 32°08' W 081°09'0 0.0
2018-Feb-11 09:58N 32°08' W 081°09'0 0.0
2018-Feb-11 09:28N 32°08' W 081°09'0 0.0
2018-Feb-11 08:52N 32°08' W 081°09'0 0.0
2018-Feb-11 08:28N 32°08' W 081°09'0 0.0
2018-Feb-11 07:58N 32°08' W 081°09'0 0.0
2018-Feb-11 07:28N 32°08' W 081°09'0 0.0
2018-Feb-11 06:46N 32°08' W 081°09'0 0.0
2018-Feb-11 06:22N 32°08' W 081°09'0 0.0
2018-Feb-11 05:58N 32°08' W 081°09'0 0.0
2018-Feb-11 05:28N 32°08' W 081°09'0 0.0
2018-Feb-11 04:58N 32°08' W 081°09'0 0.0
2018-Feb-11 04:28N 32°08' W 081°09'0 0.0
2018-Feb-11 03:58N 32°08' W 081°09'0 0.0
2018-Feb-11 03:10N 32°08' W 081°09'0 0.0
2018-Feb-11 02:58N 32°08' W 081°09'0 0.0
2018-Feb-11 02:28N 32°08' W 081°09'0 0.0
2018-Feb-11 01:58N 32°08' W 081°09'0 0.0
2018-Feb-11 01:28N 32°08' W 081°09'0 0.0
2018-Feb-11 00:46N 32°08' W 081°09'0 0.1
2018-Feb-11 00:30N 32°08' W 081°09'0 0.8
2018-Feb-11 00:00N 32°08' W 081°08'2 4.2
2018-Feb-10 23:30N 32°06' W 081°07'3 5.4
2018-Feb-10 23:00N 32°05' W 081°04'4 7.2
2018-Feb-10 22:31N 32°06' W 081°00'5 9.8
2018-Feb-10 22:00N 32°03' W 080°56'5 9.8
2018-Feb-10 21:30N 32°02' W 080°50'612.8
2018-Feb-10 21:00N 31°58' W 080°44'4 7.5
2018-Feb-10 20:30N 31°57' W 080°40'3 6.1
2018-Feb-10 20:00N 31°55' W 080°37'1 1.0
2018-Feb-10 19:30N 31°55' W 080°37'1 3.0
2018-Feb-10 19:00N 31°54' W 080°35'4 7.4
2018-Feb-10 18:30N 31°52' W 080°32'510.8
2018-Feb-10 18:00N 31°49' W 080°26'713.5
2018-Feb-10 17:31N 31°45' W 080°20'36512.4
2018-Feb-09 12:00N 27°12' W 075°42'   070 / 101029.210.8 22.519.623.0

Dump ship's entire track history